sensor_id;sensor_type;location;lat;lon;timestamp;P1;durP1;ratioP1;P2;durP2;ratioP2
10637;SDS011;47007;49.252;8.904;2023-05-24T00:00:24;4.10;;;2.72;;
10637;SDS011;47007;49.252;8.904;2023-05-24T00:01:05;3.03;;;2.63;;
10637;SDS011;47007;49.252;8.904;2023-05-24T00:01:47;3.80;;;2.75;;
10637;SDS011;47007;49.252;8.904;2023-05-24T00:02:29;3.90;;;2.38;;
10637;SDS011;47007;49.252;8.904;2023-05-24T00:03:11;4.00;;;2.90;;
10637;SDS011;47007;49.252;8.904;2023-05-24T00:03:53;3.00;;;2.70;;
10637;SDS011;47007;49.252;8.904;2023-05-24T00:04:40;2.95;;;2.55;;
10637;SDS011;47007;49.252;8.904;2023-05-24T00:05:22;3.10;;;2.47;;
10637;SDS011;47007;49.252;8.904;2023-05-24T00:06:04;4.38;;;2.90;;
10637;SDS011;47007;49.252;8.904;2023-05-24T00:06:47;2.65;;;2.45;;
10637;SDS011;47007;49.252;8.904;2023-05-24T00:07:29;3.20;;;2.80;;
10637;SDS011;47007;49.252;8.904;2023-05-24T00:08:10;2.60;;;2.40;;
10637;SDS011;47007;49.252;8.904;2023-05-24T00:08:52;3.97;;;2.92;;
10637;SDS011;47007;49.252;8.904;2023-05-24T00:09:34;3.25;;;2.53;;
10637;SDS011;47007;49.252;8.904;2023-05-24T00:10:16;3.72;;;2.30;;
10637;SDS011;47007;49.252;8.904;2023-05-24T00:10:58;3.15;;;2.22;;
10637;SDS011;47007;49.252;8.904;2023-05-24T00:11:40;2.78;;;2.58;;
10637;SDS011;47007;49.252;8.904;2023-05-24T00:12:21;2.95;;;2.58;;
10637;SDS011;47007;49.252;8.904;2023-05-24T00:13:03;4.10;;;2.70;;
10637;SDS011;47007;49.252;8.904;2023-05-24T00:13:45;3.25;;;2.78;;
10637;SDS011;47007;49.252;8.904;2023-05-24T00:14:27;2.70;;;2.30;;
10637;SDS011;47007;49.252;8.904;2023-05-24T00:15:09;4.18;;;2.63;;
10637;SDS011;47007;49.252;8.904;2023-05-24T00:15:51;3.45;;;2.40;;
10637;SDS011;47007;49.252;8.904;2023-05-24T00:16:32;3.13;;;2.55;;
10637;SDS011;47007;49.252;8.904;2023-05-24T00:17:15;3.47;;;2.45;;
10637;SDS011;47007;49.252;8.904;2023-05-24T00:17:57;3.13;;;2.42;;
10637;SDS011;47007;49.252;8.904;2023-05-24T00:18:39;2.58;;;2.38;;
10637;SDS011;47007;49.252;8.904;2023-05-24T00:19:21;2.72;;;2.47;;
10637;SDS011;47007;49.252;8.904;2023-05-24T00:20:03;3.00;;;2.60;;
10637;SDS011;47007;49.252;8.904;2023-05-24T00:20:47;4.07;;;2.55;;
10637;SDS011;47007;49.252;8.904;2023-05-24T00:21:29;3.45;;;2.22;;
10637;SDS011;47007;49.252;8.904;2023-05-24T00:22:12;3.90;;;2.67;;
10637;SDS011;47007;49.252;8.904;2023-05-24T00:22:54;2.45;;;2.25;;
10637;SDS011;47007;49.252;8.904;2023-05-24T00:23:36;2.83;;;2.20;;
10637;SDS011;47007;49.252;8.904;2023-05-24T00:24:18;3.03;;;2.63;;
10637;SDS011;47007;49.252;8.904;2023-05-24T00:25:01;3.00;;;2.70;;
10637;SDS011;47007;49.252;8.904;2023-05-24T00:25:42;4.63;;;2.40;;
10637;SDS011;47007;49.252;8.904;2023-05-24T00:26:24;3.95;;;2.85;;
10637;SDS011;47007;49.252;8.904;2023-05-24T00:27:09;4.38;;;2.33;;
10637;SDS011;47007;49.252;8.904;2023-05-24T00:27:52;3.15;;;2.30;;
10637;SDS011;47007;49.252;8.904;2023-05-24T00:28:34;4.30;;;2.35;;
10637;SDS011;47007;49.252;8.904;2023-05-24T00:29:15;4.03;;;2.20;;
10637;SDS011;47007;49.252;8.904;2023-05-24T00:29:57;3.03;;;2.63;;
10637;SDS011;47007;49.252;8.904;2023-05-24T00:30:39;3.28;;;2.67;;
10637;SDS011;47007;49.252;8.904;2023-05-24T00:31:21;2.75;;;2.40;;
10637;SDS011;47007;49.252;8.904;2023-05-24T00:32:03;3.65;;;2.47;;
10637;SDS011;47007;49.252;8.904;2023-05-24T00:32:45;5.75;;;2.72;;
10637;SDS011;47007;49.252;8.904;2023-05-24T00:33:26;4.93;;;2.40;;
10637;SDS011;47007;49.252;8.904;2023-05-24T00:34:09;4.97;;;2.63;;
10637;SDS011;47007;49.252;8.904;2023-05-24T00:34:51;3.10;;;2.80;;
10637;SDS011;47007;49.252;8.904;2023-05-24T00:35:32;3.13;;;2.83;;
10637;SDS011;47007;49.252;8.904;2023-05-24T00:36:14;4.30;;;2.50;;
10637;SDS011;47007;49.252;8.904;2023-05-24T00:36:56;3.67;;;2.40;;
10637;SDS011;47007;49.252;8.904;2023-05-24T00:37:39;4.22;;;3.22;;
10637;SDS011;47007;49.252;8.904;2023-05-24T00:38:25;2.70;;;2.50;;
10637;SDS011;47007;49.252;8.904;2023-05-24T00:39:07;4.18;;;3.05;;
10637;SDS011;47007;49.252;8.904;2023-05-24T00:39:49;4.90;;;2.97;;
10637;SDS011;47007;49.252;8.904;2023-05-24T00:40:30;3.35;;;2.72;;
10637;SDS011;47007;49.252;8.904;2023-05-24T00:41:12;4.78;;;2.80;;
10637;SDS011;47007;49.252;8.904;2023-05-24T00:41:54;4.25;;;3.15;;
10637;SDS011;47007;49.252;8.904;2023-05-24T00:42:36;4.28;;;3.15;;
10637;SDS011;47007;49.252;8.904;2023-05-24T00:43:18;4.28;;;3.30;;
10637;SDS011;47007;49.252;8.904;2023-05-24T00:43:59;4.03;;;3.00;;
10637;SDS011;47007;49.252;8.904;2023-05-24T00:44:42;4.65;;;2.72;;
10637;SDS011;47007;49.252;8.904;2023-05-24T00:45:24;3.50;;;3.20;;
10637;SDS011;47007;49.252;8.904;2023-05-24T00:46:13;5.15;;;2.78;;
10637;SDS011;47007;49.252;8.904;2023-05-24T00:46:59;5.35;;;3.35;;
10637;SDS011;47007;49.252;8.904;2023-05-24T00:47:41;3.42;;;3.13;;
10637;SDS011;47007;49.252;8.904;2023-05-24T00:48:24;3.83;;;3.17;;
10637;SDS011;47007;49.252;8.904;2023-05-24T00:49:09;3.60;;;3.30;;
10637;SDS011;47007;49.252;8.904;2023-05-24T00:49:50;5.55;;;3.03;;
10637;SDS011;47007;49.252;8.904;2023-05-24T00:50:32;3.53;;;3.05;;
10637;SDS011;47007;49.252;8.904;2023-05-24T00:51:14;5.75;;;3.17;;
10637;SDS011;47007;49.252;8.904;2023-05-24T00:51:57;4.40;;;3.50;;
10637;SDS011;47007;49.252;8.904;2023-05-24T00:52:39;4.97;;;3.17;;
10637;SDS011;47007;49.252;8.904;2023-05-24T00:53:22;3.17;;;2.80;;
10637;SDS011;47007;49.252;8.904;2023-05-24T00:54:04;3.85;;;3.28;;
10637;SDS011;47007;49.252;8.904;2023-05-24T00:54:47;3.88;;;3.10;;
10637;SDS011;47007;49.252;8.904;2023-05-24T00:55:29;4.30;;;2.83;;
10637;SDS011;47007;49.252;8.904;2023-05-24T00:56:14;3.42;;;2.97;;
10637;SDS011;47007;49.252;8.904;2023-05-24T00:56:57;7.05;;;3.22;;
10637;SDS011;47007;49.252;8.904;2023-05-24T00:57:39;3.72;;;2.92;;
10637;SDS011;47007;49.252;8.904;2023-05-24T00:58:22;4.28;;;2.60;;
10637;SDS011;47007;49.252;8.904;2023-05-24T00:59:07;3.72;;;2.92;;
10637;SDS011;47007;49.252;8.904;2023-05-24T00:59:52;5.00;;;3.10;;
10637;SDS011;47007;49.252;8.904;2023-05-24T01:00:34;5.00;;;3.25;;
10637;SDS011;47007;49.252;8.904;2023-05-24T01:01:17;3.75;;;2.72;;
10637;SDS011;47007;49.252;8.904;2023-05-24T01:01:59;3.40;;;2.75;;
10637;SDS011;47007;49.252;8.904;2023-05-24T01:02:41;3.45;;;3.08;;
10637;SDS011;47007;49.252;8.904;2023-05-24T01:04:03;3.75;;;2.80;;
10637;SDS011;47007;49.252;8.904;2023-05-24T01:04:46;3.63;;;3.20;;
10637;SDS011;47007;49.252;8.904;2023-05-24T01:05:29;4.45;;;2.83;;
10637;SDS011;47007;49.252;8.904;2023-05-24T01:06:11;4.13;;;2.70;;
10637;SDS011;47007;49.252;8.904;2023-05-24T01:06:57;3.88;;;2.88;;
10637;SDS011;47007;49.252;8.904;2023-05-24T01:08:14;3.28;;;3.03;;
10637;SDS011;47007;49.252;8.904;2023-05-24T01:12:27;4.63;;;3.10;;
10637;SDS011;47007;49.252;8.904;2023-05-24T01:13:47;4.00;;;2.90;;
10637;SDS011;47007;49.252;8.904;2023-05-24T01:17:34;2.80;;;2.60;;
10637;SDS011;47007;49.252;8.904;2023-05-24T01:18:32;5.65;;;3.10;;
10637;SDS011;47007;49.252;8.904;2023-05-24T01:20:10;3.83;;;2.85;;
10637;SDS011;47007;49.252;8.904;2023-05-24T01:21:01;5.15;;;3.50;;
10637;SDS011;47007;49.252;8.904;2023-05-24T01:23:30;4.15;;;2.85;;
10637;SDS011;47007;49.252;8.904;2023-05-24T01:24:31;5.45;;;3.42;;
10637;SDS011;47007;49.252;8.904;2023-05-24T01:26:38;6.72;;;3.65;;
10637;SDS011;47007;49.252;8.904;2023-05-24T01:27:30;4.75;;;3.17;;
10637;SDS011;47007;49.252;8.904;2023-05-24T01:28:14;3.90;;;2.90;;
10637;SDS011;47007;49.252;8.904;2023-05-24T01:28:58;3.97;;;3.40;;
10637;SDS011;47007;49.252;8.904;2023-05-24T01:29:42;3.58;;;3.05;;
10637;SDS011;47007;49.252;8.904;2023-05-24T01:30:25;4.63;;;2.85;;
10637;SDS011;47007;49.252;8.904;2023-05-24T01:31:10;4.32;;;2.78;;
10637;SDS011;47007;49.252;8.904;2023-05-24T01:31:53;4.55;;;3.20;;
10637;SDS011;47007;49.252;8.904;2023-05-24T01:32:35;3.20;;;2.88;;
10637;SDS011;47007;49.252;8.904;2023-05-24T01:33:19;5.00;;;3.13;;
10637;SDS011;47007;49.252;8.904;2023-05-24T01:34:01;4.40;;;3.00;;
10637;SDS011;47007;49.252;8.904;2023-05-24T01:34:43;5.90;;;3.25;;
10637;SDS011;47007;49.252;8.904;2023-05-24T01:35:25;4.20;;;2.90;;
10637;SDS011;47007;49.252;8.904;2023-05-24T01:36:06;4.60;;;2.97;;
10637;SDS011;47007;49.252;8.904;2023-05-24T01:36:48;4.68;;;3.08;;
10637;SDS011;47007;49.252;8.904;2023-05-24T01:37:30;3.70;;;3.15;;
10637;SDS011;47007;49.252;8.904;2023-05-24T01:38:12;4.03;;;2.90;;
10637;SDS011;47007;49.252;8.904;2023-05-24T01:38:55;4.32;;;2.83;;
10637;SDS011;47007;49.252;8.904;2023-05-24T01:39:37;5.47;;;3.35;;
10637;SDS011;47007;49.252;8.904;2023-05-24T01:40:21;3.63;;;2.80;;
10637;SDS011;47007;49.252;8.904;2023-05-24T01:41:13;6.43;;;3.50;;
10637;SDS011;47007;49.252;8.904;2023-05-24T01:42:23;5.28;;;3.45;;
10637;SDS011;47007;49.252;8.904;2023-05-24T01:44:19;3.83;;;3.15;;
10637;SDS011;47007;49.252;8.904;2023-05-24T01:45:22;5.43;;;2.80;;
10637;SDS011;47007;49.252;8.904;2023-05-24T01:46:32;4.13;;;2.85;;
10637;SDS011;47007;49.252;8.904;2023-05-24T01:49:29;4.57;;;2.97;;
10637;SDS011;47007;49.252;8.904;2023-05-24T01:51:08;3.97;;;2.55;;
10637;SDS011;47007;49.252;8.904;2023-05-24T01:52:01;4.22;;;2.85;;
10637;SDS011;47007;49.252;8.904;2023-05-24T01:52:45;3.38;;;2.47;;
10637;SDS011;47007;49.252;8.904;2023-05-24T01:53:32;5.15;;;2.90;;
10637;SDS011;47007;49.252;8.904;2023-05-24T01:54:20;4.40;;;2.83;;
10637;SDS011;47007;49.252;8.904;2023-05-24T01:55:04;3.83;;;2.65;;
10637;SDS011;47007;49.252;8.904;2023-05-24T01:55:49;4.38;;;2.67;;
10637;SDS011;47007;49.252;8.904;2023-05-24T01:56:34;5.93;;;3.10;;
10637;SDS011;47007;49.252;8.904;2023-05-24T01:57:17;5.53;;;2.90;;
10637;SDS011;47007;49.252;8.904;2023-05-24T01:58:01;4.93;;;3.13;;
10637;SDS011;47007;49.252;8.904;2023-05-24T01:58:45;6.20;;;2.75;;
10637;SDS011;47007;49.252;8.904;2023-05-24T01:59:28;3.72;;;2.40;;
10637;SDS011;47007;49.252;8.904;2023-05-24T02:00:14;4.13;;;2.75;;
10637;SDS011;47007;49.252;8.904;2023-05-24T02:00:59;3.45;;;2.58;;
10637;SDS011;47007;49.252;8.904;2023-05-24T02:01:42;4.25;;;2.95;;
10637;SDS011;47007;49.252;8.904;2023-05-24T02:02:24;3.78;;;2.78;;
10637;SDS011;47007;49.252;8.904;2023-05-24T02:03:06;5.13;;;2.95;;
10637;SDS011;47007;49.252;8.904;2023-05-24T02:03:49;5.25;;;2.90;;
10637;SDS011;47007;49.252;8.904;2023-05-24T02:04:31;4.45;;;2.90;;
10637;SDS011;47007;49.252;8.904;2023-05-24T02:05:13;4.07;;;2.92;;
10637;SDS011;47007;49.252;8.904;2023-05-24T02:05:55;5.88;;;3.55;;
10637;SDS011;47007;49.252;8.904;2023-05-24T02:06:37;3.58;;;2.70;;
10637;SDS011;47007;49.252;8.904;2023-05-24T02:07:21;4.15;;;2.70;;
10637;SDS011;47007;49.252;8.904;2023-05-24T02:08:03;5.63;;;3.10;;
10637;SDS011;47007;49.252;8.904;2023-05-24T02:08:45;5.50;;;2.95;;
10637;SDS011;47007;49.252;8.904;2023-05-24T02:09:27;4.28;;;2.97;;
10637;SDS011;47007;49.252;8.904;2023-05-24T02:10:09;5.80;;;3.25;;
10637;SDS011;47007;49.252;8.904;2023-05-24T02:10:51;5.93;;;3.30;;
10637;SDS011;47007;49.252;8.904;2023-05-24T02:11:32;4.45;;;3.00;;
10637;SDS011;47007;49.252;8.904;2023-05-24T02:12:14;5.93;;;3.60;;
10637;SDS011;47007;49.252;8.904;2023-05-24T02:12:56;4.88;;;2.90;;
10637;SDS011;47007;49.252;8.904;2023-05-24T02:13:39;4.80;;;3.45;;
10637;SDS011;47007;49.252;8.904;2023-05-24T02:14:21;4.47;;;3.20;;
10637;SDS011;47007;49.252;8.904;2023-05-24T02:15:04;4.97;;;3.17;;
10637;SDS011;47007;49.252;8.904;2023-05-24T02:15:47;5.95;;;3.33;;
10637;SDS011;47007;49.252;8.904;2023-05-24T02:16:29;5.93;;;3.25;;
10637;SDS011;47007;49.252;8.904;2023-05-24T02:17:11;4.90;;;3.00;;
10637;SDS011;47007;49.252;8.904;2023-05-24T02:17:53;5.97;;;3.58;;
10637;SDS011;47007;49.252;8.904;2023-05-24T02:18:35;5.35;;;2.97;;
10637;SDS011;47007;49.252;8.904;2023-05-24T02:19:18;4.25;;;2.90;;
10637;SDS011;47007;49.252;8.904;2023-05-24T02:20:00;4.25;;;3.15;;
10637;SDS011;47007;49.252;8.904;2023-05-24T02:20:43;4.95;;;3.38;;
10637;SDS011;47007;49.252;8.904;2023-05-24T02:21:26;5.30;;;3.13;;
10637;SDS011;47007;49.252;8.904;2023-05-24T02:22:08;5.75;;;3.30;;
10637;SDS011;47007;49.252;8.904;2023-05-24T02:22:50;5.57;;;3.25;;
10637;SDS011;47007;49.252;8.904;2023-05-24T02:23:32;4.95;;;2.95;;
10637;SDS011;47007;49.252;8.904;2023-05-24T02:24:13;6.15;;;3.20;;
10637;SDS011;47007;49.252;8.904;2023-05-24T02:24:55;4.22;;;2.97;;
10637;SDS011;47007;49.252;8.904;2023-05-24T02:25:38;4.40;;;3.03;;
10637;SDS011;47007;49.252;8.904;2023-05-24T02:26:19;4.45;;;3.08;;
10637;SDS011;47007;49.252;8.904;2023-05-24T02:27:01;6.43;;;3.40;;
10637;SDS011;47007;49.252;8.904;2023-05-24T02:27:43;5.70;;;3.30;;
10637;SDS011;47007;49.252;8.904;2023-05-24T02:28:27;5.22;;;2.80;;
10637;SDS011;47007;49.252;8.904;2023-05-24T02:29:12;4.53;;;3.25;;
10637;SDS011;47007;49.252;8.904;2023-05-24T02:29:54;4.85;;;3.25;;
10637;SDS011;47007;49.252;8.904;2023-05-24T02:30:36;6.55;;;3.10;;
10637;SDS011;47007;49.252;8.904;2023-05-24T02:31:18;5.95;;;3.30;;
10637;SDS011;47007;49.252;8.904;2023-05-24T02:32:02;5.57;;;2.92;;
10637;SDS011;47007;49.252;8.904;2023-05-24T02:32:44;4.28;;;2.90;;
10637;SDS011;47007;49.252;8.904;2023-05-24T02:33:25;3.95;;;3.10;;
10637;SDS011;47007;49.252;8.904;2023-05-24T02:34:07;6.20;;;3.28;;
10637;SDS011;47007;49.252;8.904;2023-05-24T02:34:49;5.75;;;3.25;;
10637;SDS011;47007;49.252;8.904;2023-05-24T02:35:31;4.28;;;3.03;;
10637;SDS011;47007;49.252;8.904;2023-05-24T02:36:13;4.82;;;3.08;;
10637;SDS011;47007;49.252;8.904;2023-05-24T02:36:56;6.43;;;2.75;;
10637;SDS011;47007;49.252;8.904;2023-05-24T02:37:37;5.78;;;3.50;;
10637;SDS011;47007;49.252;8.904;2023-05-24T02:38:19;5.68;;;3.35;;
10637;SDS011;47007;49.252;8.904;2023-05-24T02:39:01;7.55;;;3.47;;
10637;SDS011;47007;49.252;8.904;2023-05-24T02:39:44;4.60;;;3.05;;
10637;SDS011;47007;49.252;8.904;2023-05-24T02:40:25;5.30;;;3.35;;
10637;SDS011;47007;49.252;8.904;2023-05-24T02:41:07;5.30;;;2.85;;
10637;SDS011;47007;49.252;8.904;2023-05-24T02:41:49;6.82;;;3.30;;
10637;SDS011;47007;49.252;8.904;2023-05-24T02:42:31;6.47;;;3.10;;
10637;SDS011;47007;49.252;8.904;2023-05-24T02:43:13;5.88;;;3.13;;
10637;SDS011;47007;49.252;8.904;2023-05-24T02:43:54;7.97;;;3.40;;
10637;SDS011;47007;49.252;8.904;2023-05-24T02:44:36;6.10;;;2.90;;
10637;SDS011;47007;49.252;8.904;2023-05-24T02:45:18;6.00;;;3.17;;
10637;SDS011;47007;49.252;8.904;2023-05-24T02:46:00;5.88;;;3.08;;
10637;SDS011;47007;49.252;8.904;2023-05-24T02:46:43;5.25;;;2.95;;
10637;SDS011;47007;49.252;8.904;2023-05-24T02:47:25;6.18;;;3.22;;
10637;SDS011;47007;49.252;8.904;2023-05-24T02:48:09;7.70;;;3.38;;
10637;SDS011;47007;49.252;8.904;2023-05-24T02:48:51;9.25;;;4.07;;
10637;SDS011;47007;49.252;8.904;2023-05-24T02:49:33;8.23;;;2.80;;
10637;SDS011;47007;49.252;8.904;2023-05-24T02:50:15;4.97;;;3.10;;
10637;SDS011;47007;49.252;8.904;2023-05-24T02:50:57;7.25;;;2.80;;
10637;SDS011;47007;49.252;8.904;2023-05-24T02:51:39;5.22;;;3.03;;
10637;SDS011;47007;49.252;8.904;2023-05-24T02:52:21;5.82;;;2.90;;
10637;SDS011;47007;49.252;8.904;2023-05-24T02:53:03;5.97;;;3.30;;
10637;SDS011;47007;49.252;8.904;2023-05-24T02:53:45;7.57;;;3.17;;
10637;SDS011;47007;49.252;8.904;2023-05-24T02:54:27;7.05;;;3.40;;
10637;SDS011;47007;49.252;8.904;2023-05-24T02:55:09;6.78;;;3.10;;
10637;SDS011;47007;49.252;8.904;2023-05-24T02:55:51;7.18;;;3.20;;
10637;SDS011;47007;49.252;8.904;2023-05-24T02:56:33;5.65;;;3.20;;
10637;SDS011;47007;49.252;8.904;2023-05-24T02:57:15;7.75;;;3.05;;
10637;SDS011;47007;49.252;8.904;2023-05-24T02:57:58;6.03;;;2.70;;
10637;SDS011;47007;49.252;8.904;2023-05-24T02:58:39;6.65;;;3.10;;
10637;SDS011;47007;49.252;8.904;2023-05-24T02:59:21;4.07;;;3.03;;
10637;SDS011;47007;49.252;8.904;2023-05-24T03:00:04;6.40;;;2.88;;
10637;SDS011;47007;49.252;8.904;2023-05-24T03:00:49;4.05;;;2.63;;
10637;SDS011;47007;49.252;8.904;2023-05-24T03:01:33;6.57;;;3.13;;
10637;SDS011;47007;49.252;8.904;2023-05-24T03:02:16;5.05;;;2.90;;
10637;SDS011;47007;49.252;8.904;2023-05-24T03:02:59;6.13;;;2.90;;
10637;SDS011;47007;49.252;8.904;2023-05-24T03:03:43;6.22;;;2.70;;
10637;SDS011;47007;49.252;8.904;2023-05-24T03:04:25;4.90;;;3.22;;
10637;SDS011;47007;49.252;8.904;2023-05-24T03:05:08;5.13;;;3.20;;
10637;SDS011;47007;49.252;8.904;2023-05-24T03:05:50;8.43;;;2.80;;
10637;SDS011;47007;49.252;8.904;2023-05-24T03:06:31;7.20;;;3.40;;
10637;SDS011;47007;49.252;8.904;2023-05-24T03:07:13;9.10;;;3.00;;
10637;SDS011;47007;49.252;8.904;2023-05-24T03:07:55;6.97;;;3.08;;
10637;SDS011;47007;49.252;8.904;2023-05-24T03:08:39;5.93;;;3.05;;
10637;SDS011;47007;49.252;8.904;2023-05-24T03:09:21;6.07;;;2.53;;
10637;SDS011;47007;49.252;8.904;2023-05-24T03:10:03;5.72;;;3.15;;
10637;SDS011;47007;49.252;8.904;2023-05-24T03:10:45;6.15;;;3.10;;
10637;SDS011;47007;49.252;8.904;2023-05-24T03:11:28;6.07;;;3.35;;
10637;SDS011;47007;49.252;8.904;2023-05-24T03:12:11;6.90;;;2.92;;
10637;SDS011;47007;49.252;8.904;2023-05-24T03:12:54;4.70;;;2.95;;
10637;SDS011;47007;49.252;8.904;2023-05-24T03:13:36;3.83;;;2.50;;
10637;SDS011;47007;49.252;8.904;2023-05-24T03:14:18;5.07;;;2.80;;
10637;SDS011;47007;49.252;8.904;2023-05-24T03:15:03;8.20;;;3.42;;
10637;SDS011;47007;49.252;8.904;2023-05-24T03:15:45;4.80;;;2.97;;
10637;SDS011;47007;49.252;8.904;2023-05-24T03:16:27;5.35;;;2.90;;
10637;SDS011;47007;49.252;8.904;2023-05-24T03:17:08;5.85;;;2.80;;
10637;SDS011;47007;49.252;8.904;2023-05-24T03:17:50;6.63;;;2.92;;
10637;SDS011;47007;49.252;8.904;2023-05-24T03:18:32;5.97;;;2.55;;
10637;SDS011;47007;49.252;8.904;2023-05-24T03:19:14;5.82;;;2.90;;
10637;SDS011;47007;49.252;8.904;2023-05-24T03:19:57;6.30;;;3.10;;
10637;SDS011;47007;49.252;8.904;2023-05-24T03:20:39;6.75;;;3.30;;
10637;SDS011;47007;49.252;8.904;2023-05-24T03:21:21;5.25;;;2.65;;
10637;SDS011;47007;49.252;8.904;2023-05-24T03:22:04;7.38;;;2.97;;
10637;SDS011;47007;49.252;8.904;2023-05-24T03:22:45;6.82;;;3.00;;
10637;SDS011;47007;49.252;8.904;2023-05-24T03:23:27;6.80;;;2.70;;
10637;SDS011;47007;49.252;8.904;2023-05-24T03:24:09;6.18;;;2.70;;
10637;SDS011;47007;49.252;8.904;2023-05-24T03:24:53;7.72;;;3.20;;
10637;SDS011;47007;49.252;8.904;2023-05-24T03:25:35;5.57;;;2.67;;
10637;SDS011;47007;49.252;8.904;2023-05-24T03:26:16;7.65;;;2.88;;
10637;SDS011;47007;49.252;8.904;2023-05-24T03:26:59;5.75;;;2.90;;
10637;SDS011;47007;49.252;8.904;2023-05-24T03:27:41;6.35;;;3.40;;
10637;SDS011;47007;49.252;8.904;2023-05-24T03:28:23;4.78;;;2.67;;
10637;SDS011;47007;49.252;8.904;2023-05-24T03:29:05;5.75;;;2.80;;
10637;SDS011;47007;49.252;8.904;2023-05-24T03:29:50;5.03;;;3.10;;
10637;SDS011;47007;49.252;8.904;2023-05-24T03:30:35;4.55;;;2.60;;
10637;SDS011;47007;49.252;8.904;2023-05-24T03:31:17;6.10;;;2.60;;
10637;SDS011;47007;49.252;8.904;2023-05-24T03:32:02;5.18;;;2.60;;
10637;SDS011;47007;49.252;8.904;2023-05-24T03:32:44;5.85;;;2.92;;
10637;SDS011;47007;49.252;8.904;2023-05-24T03:33:26;10.25;;;3.28;;
10637;SDS011;47007;49.252;8.904;2023-05-24T03:34:09;9.15;;;3.65;;
10637;SDS011;47007;49.252;8.904;2023-05-24T03:34:52;18.75;;;7.18;;
10637;SDS011;47007;49.252;8.904;2023-05-24T03:35:34;12.88;;;5.00;;
10637;SDS011;47007;49.252;8.904;2023-05-24T03:36:17;5.53;;;3.67;;
10637;SDS011;47007;49.252;8.904;2023-05-24T03:36:58;7.07;;;3.28;;
10637;SDS011;47007;49.252;8.904;2023-05-24T03:37:41;7.53;;;2.72;;
10637;SDS011;47007;49.252;8.904;2023-05-24T03:38:22;5.97;;;2.60;;
10637;SDS011;47007;49.252;8.904;2023-05-24T03:39:04;5.10;;;2.55;;
10637;SDS011;47007;49.252;8.904;2023-05-24T03:39:54;3.63;;;2.35;;
10637;SDS011;47007;49.252;8.904;2023-05-24T03:40:55;5.85;;;2.90;;
10637;SDS011;47007;49.252;8.904;2023-05-24T03:41:37;4.13;;;2.25;;
10637;SDS011;47007;49.252;8.904;2023-05-24T03:42:19;5.18;;;2.42;;
10637;SDS011;47007;49.252;8.904;2023-05-24T03:43:01;4.55;;;2.47;;
10637;SDS011;47007;49.252;8.904;2023-05-24T03:43:55;6.47;;;3.08;;
10637;SDS011;47007;49.252;8.904;2023-05-24T03:44:37;3.75;;;2.10;;
10637;SDS011;47007;49.252;8.904;2023-05-24T03:45:20;4.43;;;2.72;;
10637;SDS011;47007;49.252;8.904;2023-05-24T03:46:18;5.10;;;2.47;;
10637;SDS011;47007;49.252;8.904;2023-05-24T03:47:01;5.72;;;2.08;;
10637;SDS011;47007;49.252;8.904;2023-05-24T03:47:44;2.92;;;2.10;;
10637;SDS011;47007;49.252;8.904;2023-05-24T03:48:26;5.65;;;2.33;;
10637;SDS011;47007;49.252;8.904;2023-05-24T03:49:07;4.25;;;2.25;;
10637;SDS011;47007;49.252;8.904;2023-05-24T03:49:51;4.40;;;2.03;;
10637;SDS011;47007;49.252;8.904;2023-05-24T03:50:33;5.40;;;2.25;;
10637;SDS011;47007;49.252;8.904;2023-05-24T03:51:15;4.65;;;2.17;;
10637;SDS011;47007;49.252;8.904;2023-05-24T03:51:56;6.18;;;2.47;;
10637;SDS011;47007;49.252;8.904;2023-05-24T03:52:38;5.80;;;2.50;;
10637;SDS011;47007;49.252;8.904;2023-05-24T03:53:20;5.18;;;2.53;;
10637;SDS011;47007;49.252;8.904;2023-05-24T03:54:03;6.07;;;2.35;;
10637;SDS011;47007;49.252;8.904;2023-05-24T03:54:45;4.55;;;2.63;;
10637;SDS011;47007;49.252;8.904;2023-05-24T03:55:27;6.43;;;2.63;;
10637;SDS011;47007;49.252;8.904;2023-05-24T03:56:10;5.10;;;2.60;;
10637;SDS011;47007;49.252;8.904;2023-05-24T03:56:52;5.07;;;2.15;;
10637;SDS011;47007;49.252;8.904;2023-05-24T03:57:34;3.80;;;2.08;;
10637;SDS011;47007;49.252;8.904;2023-05-24T03:58:15;4.50;;;2.17;;
10637;SDS011;47007;49.252;8.904;2023-05-24T03:58:58;5.80;;;2.28;;
10637;SDS011;47007;49.252;8.904;2023-05-24T03:59:44;6.45;;;2.35;;
10637;SDS011;47007;49.252;8.904;2023-05-24T04:00:26;4.82;;;2.00;;
10637;SDS011;47007;49.252;8.904;2023-05-24T04:01:07;5.68;;;2.40;;
10637;SDS011;47007;49.252;8.904;2023-05-24T04:01:51;4.65;;;2.20;;
10637;SDS011;47007;49.252;8.904;2023-05-24T04:02:33;5.57;;;2.63;;
10637;SDS011;47007;49.252;8.904;2023-05-24T04:03:15;6.82;;;2.63;;
10637;SDS011;47007;49.252;8.904;2023-05-24T04:03:57;8.07;;;2.90;;
10637;SDS011;47007;49.252;8.904;2023-05-24T04:04:39;5.55;;;2.78;;
10637;SDS011;47007;49.252;8.904;2023-05-24T04:05:21;5.70;;;2.67;;
10637;SDS011;47007;49.252;8.904;2023-05-24T04:06:07;5.72;;;2.47;;
10637;SDS011;47007;49.252;8.904;2023-05-24T04:06:49;2.92;;;2.10;;
10637;SDS011;47007;49.252;8.904;2023-05-24T04:07:31;4.75;;;1.90;;
10637;SDS011;47007;49.252;8.904;2023-05-24T04:08:14;6.40;;;2.60;;
10637;SDS011;47007;49.252;8.904;2023-05-24T04:08:57;7.90;;;2.70;;
10637;SDS011;47007;49.252;8.904;2023-05-24T04:09:40;8.18;;;3.10;;
10637;SDS011;47007;49.252;8.904;2023-05-24T04:10:21;6.00;;;2.80;;
10637;SDS011;47007;49.252;8.904;2023-05-24T04:11:03;5.47;;;2.35;;
10637;SDS011;47007;49.252;8.904;2023-05-24T04:11:45;4.03;;;2.40;;
10637;SDS011;47007;49.252;8.904;2023-05-24T04:12:27;5.85;;;2.40;;
10637;SDS011;47007;49.252;8.904;2023-05-24T04:13:08;7.10;;;2.55;;
10637;SDS011;47007;49.252;8.904;2023-05-24T04:13:50;6.93;;;2.65;;
10637;SDS011;47007;49.252;8.904;2023-05-24T04:14:32;7.47;;;2.47;;
10637;SDS011;47007;49.252;8.904;2023-05-24T04:15:15;8.50;;;3.08;;
10637;SDS011;47007;49.252;8.904;2023-05-24T04:15:57;6.60;;;2.60;;
10637;SDS011;47007;49.252;8.904;2023-05-24T04:16:39;7.93;;;3.15;;
10637;SDS011;47007;49.252;8.904;2023-05-24T04:17:22;6.03;;;2.58;;
10637;SDS011;47007;49.252;8.904;2023-05-24T04:18:07;4.53;;;2.15;;
10637;SDS011;47007;49.252;8.904;2023-05-24T04:18:50;6.00;;;2.35;;
10637;SDS011;47007;49.252;8.904;2023-05-24T04:19:32;4.13;;;2.22;;
10637;SDS011;47007;49.252;8.904;2023-05-24T04:20:13;6.25;;;2.50;;
10637;SDS011;47007;49.252;8.904;2023-05-24T04:20:55;5.85;;;2.50;;
10637;SDS011;47007;49.252;8.904;2023-05-24T04:21:37;4.38;;;2.33;;
10637;SDS011;47007;49.252;8.904;2023-05-24T04:22:20;8.88;;;3.05;;
10637;SDS011;47007;49.252;8.904;2023-05-24T04:23:06;5.55;;;2.20;;
10637;SDS011;47007;49.252;8.904;2023-05-24T04:23:47;3.65;;;2.20;;
10637;SDS011;47007;49.252;8.904;2023-05-24T04:24:29;6.68;;;2.20;;
10637;SDS011;47007;49.252;8.904;2023-05-24T04:25:11;4.57;;;2.28;;
10637;SDS011;47007;49.252;8.904;2023-05-24T04:25:53;6.55;;;2.53;;
10637;SDS011;47007;49.252;8.904;2023-05-24T04:26:34;3.63;;;2.00;;
10637;SDS011;47007;49.252;8.904;2023-05-24T04:27:18;6.53;;;2.65;;
10637;SDS011;47007;49.252;8.904;2023-05-24T04:28:00;6.75;;;2.90;;
10637;SDS011;47007;49.252;8.904;2023-05-24T04:28:45;5.53;;;2.80;;
10637;SDS011;47007;49.252;8.904;2023-05-24T04:29:27;6.53;;;2.33;;
10637;SDS011;47007;49.252;8.904;2023-05-24T04:30:10;4.78;;;2.08;;
10637;SDS011;47007;49.252;8.904;2023-05-24T04:30:52;7.65;;;2.35;;
10637;SDS011;47007;49.252;8.904;2023-05-24T04:31:35;4.35;;;2.33;;
10637;SDS011;47007;49.252;8.904;2023-05-24T04:32:18;2.92;;;2.17;;
10637;SDS011;47007;49.252;8.904;2023-05-24T04:33:00;3.63;;;2.28;;
10637;SDS011;47007;49.252;8.904;2023-05-24T04:33:42;5.70;;;2.15;;
10637;SDS011;47007;49.252;8.904;2023-05-24T04:34:24;2.92;;;2.17;;
10637;SDS011;47007;49.252;8.904;2023-05-24T04:35:05;4.25;;;2.00;;
10637;SDS011;47007;49.252;8.904;2023-05-24T04:35:48;5.13;;;2.05;;
10637;SDS011;47007;49.252;8.904;2023-05-24T04:36:30;7.40;;;2.53;;